createdAt,value
2022-10-28T00:02:03.627Z,14.20
2022-10-28T00:06:09.189Z,14.10
2022-10-28T00:10:12.070Z,14.00
2022-10-28T00:14:15.036Z,14.00
2022-10-28T00:18:19.212Z,14.10
2022-10-28T00:22:22.029Z,14.20
2022-10-28T00:26:26.220Z,14.10
2022-10-28T00:34:38.598Z,14.20
2022-10-28T00:38:42.291Z,14.40
2022-10-28T00:42:45.106Z,14.50
2022-10-28T00:46:51.395Z,14.50
2022-10-28T00:50:56.054Z,14.60
2022-10-28T00:55:01.537Z,14.60
2022-10-28T00:59:12.378Z,14.70
2022-10-28T01:03:15.993Z,14.70
2022-10-28T01:07:20.519Z,14.70
2022-10-28T01:11:40.994Z,14.60
2022-10-28T01:15:50.469Z,14.60
2022-10-28T01:20:25.359Z,14.60
2022-10-28T01:24:48.398Z,14.50
2022-10-28T01:29:26.263Z,14.60
2022-10-28T01:33:36.857Z,14.60
2022-10-28T01:37:48.366Z,14.60
2022-10-28T01:41:58.844Z,14.70
2022-10-28T01:46:05.055Z,14.70
2022-10-28T01:50:13.859Z,14.70
2022-10-28T01:54:21.248Z,14.80
2022-10-28T01:58:29.537Z,14.70
2022-10-28T02:02:34.318Z,14.60
2022-10-28T02:06:40.677Z,14.50
2022-10-28T02:10:53.170Z,14.50
2022-10-28T02:15:32.108Z,14.40
2022-10-28T02:19:39.973Z,14.40
2022-10-28T02:23:48.038Z,14.50
2022-10-28T02:27:57.546Z,14.50
2022-10-28T02:32:05.494Z,14.50
2022-10-28T02:36:13.038Z,14.60
2022-10-28T02:40:23.909Z,14.80
2022-10-28T02:44:30.455Z,14.90
2022-10-28T02:48:37.447Z,15.00
2022-10-28T02:52:43.589Z,15.10
2022-10-28T02:56:51.852Z,15.10
2022-10-28T03:00:54.902Z,15.20
2022-10-28T03:04:57.716Z,15.30
2022-10-28T03:09:00.553Z,15.30
2022-10-28T03:13:04.759Z,15.30
2022-10-28T03:17:08.540Z,15.40
2022-10-28T03:21:11.427Z,15.70
2022-10-28T03:25:14.356Z,16.20
2022-10-28T03:29:18.496Z,16.40
2022-10-28T03:33:21.302Z,16.70
2022-10-28T03:37:24.234Z,16.80
2022-10-28T03:41:27.046Z,17.00
2022-10-28T03:45:31.263Z,17.30
2022-10-28T03:49:34.068Z,17.50
2022-10-28T03:53:36.852Z,17.50
2022-10-28T03:57:39.700Z,17.50
2022-10-28T04:01:45.143Z,17.40
2022-10-28T04:05:48.788Z,17.50
2022-10-28T04:09:51.682Z,17.50
2022-10-28T04:13:54.494Z,17.50
2022-10-28T04:17:58.925Z,17.60
2022-10-28T04:22:02.000Z,17.70
2022-10-28T04:26:05.027Z,17.80
2022-10-28T04:30:09.127Z,17.90
2022-10-28T04:34:13.333Z,18.10
2022-10-28T04:38:16.233Z,18.20
2022-10-28T04:42:19.042Z,18.40
2022-10-28T04:46:21.827Z,18.50
2022-10-28T04:50:26.133Z,18.50
2022-10-28T04:54:29.816Z,18.50
2022-10-28T04:58:32.744Z,18.60
2022-10-28T05:02:35.548Z,18.60
2022-10-28T05:06:39.714Z,18.60
2022-10-28T05:10:42.519Z,18.60
2022-10-28T05:14:47.187Z,18.70
2022-10-28T05:18:50.901Z,18.80
2022-10-28T05:22:56.906Z,18.70
2022-10-28T05:27:00.442Z,18.60
2022-10-28T05:31:03.405Z,18.60
2022-10-28T05:35:06.964Z,18.60
2022-10-28T05:39:12.709Z,18.60
2022-10-28T05:43:15.552Z,18.50
2022-10-28T05:47:19.320Z,18.40
2022-10-28T05:51:22.360Z,18.20
2022-10-28T05:55:29.483Z,18.10
2022-10-28T05:59:32.259Z,18.00
2022-10-28T06:03:35.101Z,17.90
2022-10-28T06:07:38.423Z,17.80
2022-10-28T06:11:41.062Z,17.60
2022-10-28T06:15:43.853Z,17.40
2022-10-28T06:19:46.654Z,17.20
2022-10-28T06:23:50.411Z,17.10
2022-10-28T06:27:55.845Z,17.00
2022-10-28T06:31:58.813Z,16.90
2022-10-28T06:36:02.020Z,16.80
2022-10-28T06:40:06.210Z,16.80
2022-10-28T06:44:10.339Z,16.70
2022-10-28T06:48:14.968Z,16.60
2022-10-28T06:52:17.943Z,16.60
2022-10-28T06:56:20.779Z,16.70
2022-10-28T07:00:26.706Z,16.70
2022-10-28T07:04:31.678Z,16.70
2022-10-28T07:08:34.627Z,17.00
2022-10-28T07:12:37.505Z,17.30
2022-10-28T07:16:42.932Z,17.50
2022-10-28T07:20:45.762Z,17.60
2022-10-28T07:24:48.838Z,17.70
2022-10-28T07:28:51.881Z,17.80
2022-10-28T07:32:57.004Z,17.80
2022-10-28T07:37:00.011Z,17.80
2022-10-28T07:41:05.882Z,17.90
2022-10-28T07:45:09.375Z,17.90
2022-10-28T07:49:13.536Z,17.90
2022-10-28T07:53:16.339Z,18.00
2022-10-28T07:57:19.276Z,18.10
2022-10-28T08:01:22.521Z,18.20
2022-10-28T08:05:26.828Z,18.30
2022-10-28T08:09:29.627Z,18.40
2022-10-28T08:13:35.762Z,18.60
2022-10-28T08:17:40.757Z,18.80
2022-10-28T08:21:44.883Z,18.80
2022-10-28T08:25:50.813Z,18.80
2022-10-28T08:29:54.029Z,18.80
2022-10-28T08:33:56.867Z,19.00
2022-10-28T08:38:01.023Z,19.30
2022-10-28T08:42:19.174Z,19.40
2022-10-28T08:46:30.229Z,19.60
2022-10-28T08:50:39.629Z,19.70
2022-10-28T08:54:47.408Z,19.80
2022-10-28T08:58:54.612Z,19.90
2022-10-28T09:03:09.267Z,20.10
2022-10-28T09:07:18.292Z,20.40
2022-10-28T09:11:49.579Z,21.00
2022-10-28T09:16:00.004Z,21.60
2022-10-28T09:20:13.442Z,22.10
2022-10-28T09:24:20.448Z,22.50
2022-10-28T09:28:39.039Z,22.70
2022-10-28T09:32:46.143Z,22.90
2022-10-28T09:36:54.411Z,23.20
2022-10-28T09:41:02.340Z,23.20
2022-10-28T09:45:13.780Z,23.40
2022-10-28T09:49:21.741Z,23.60
2022-10-28T09:53:36.725Z,23.80
2022-10-28T09:57:39.547Z,23.70
2022-10-28T10:01:45.730Z,23.60
2022-10-28T10:05:52.281Z,23.40
2022-10-28T10:09:55.479Z,23.20
2022-10-28T10:14:01.002Z,23.10
2022-10-28T10:18:07.170Z,23.10
2022-10-28T10:22:10.036Z,23.20
2022-10-28T10:26:15.378Z,23.40
2022-10-28T10:30:23.176Z,23.60
2022-10-28T10:34:30.072Z,23.80
2022-10-28T10:38:33.449Z,23.80
2022-10-28T10:42:42.686Z,23.80
2022-10-28T10:47:19.446Z,23.80
2022-10-28T10:51:25.888Z,23.90
2022-10-28T10:55:34.741Z,23.90
2022-10-28T10:59:39.024Z,23.80
2022-10-28T11:03:54.751Z,23.70
2022-10-28T11:08:04.795Z,23.70
2022-10-28T11:12:16.615Z,23.90
2022-10-28T11:16:22.091Z,24.10
2022-10-28T11:20:27.651Z,24.30
2022-10-28T11:24:46.575Z,24.50
2022-10-28T11:29:04.245Z,24.70
2022-10-28T11:33:29.353Z,24.90
2022-10-28T11:37:47.882Z,25.00
2022-10-28T11:42:04.919Z,25.20
2022-10-28T11:46:15.099Z,25.30
2022-10-28T11:50:30.943Z,25.30
2022-10-28T11:54:50.757Z,25.30
2022-10-28T11:59:06.928Z,25.40
2022-10-28T12:03:42.762Z,25.50
2022-10-28T12:08:07.483Z,25.40
2022-10-28T12:12:18.081Z,25.40
2022-10-28T12:16:32.194Z,25.50
2022-10-28T12:20:41.396Z,25.60
2022-10-28T12:24:47.102Z,25.60
2022-10-28T12:28:54.141Z,25.50
2022-10-28T12:33:02.360Z,25.50
2022-10-28T12:37:09.078Z,25.50
2022-10-28T12:41:16.658Z,25.40
2022-10-28T12:45:22.465Z,25.40
2022-10-28T12:49:35.735Z,25.20
2022-10-28T12:53:47.532Z,25.10
2022-10-28T12:57:56.628Z,24.90
2022-10-28T13:02:01.537Z,24.90
2022-10-28T13:06:31.398Z,24.70
2022-10-28T13:10:43.352Z,24.60
2022-10-28T13:19:29.612Z,24.60
2022-10-28T13:23:40.530Z,24.50
2022-10-28T13:27:43.556Z,24.40
2022-10-28T13:31:47.649Z,24.50
2022-10-28T13:35:50.901Z,24.40
2022-10-28T13:39:55.146Z,24.40
2022-10-28T13:44:29.026Z,24.30
2022-10-28T13:48:49.187Z,24.30
2022-10-28T13:53:43.544Z,24.30
2022-10-28T13:57:49.589Z,24.30
2022-10-28T14:02:07.621Z,24.40
2022-10-28T14:06:32.372Z,24.40
2022-10-28T14:10:39.374Z,24.40
2022-10-28T14:15:03.075Z,24.40
2022-10-28T14:19:16.930Z,24.40
2022-10-28T14:23:53.269Z,24.30
2022-10-28T14:27:56.435Z,24.10
2022-10-28T14:32:39.579Z,24.10
2022-10-28T14:36:53.470Z,24.00
2022-10-28T14:41:11.665Z,23.90
2022-10-28T14:45:27.534Z,23.80
2022-10-28T14:49:33.744Z,23.70
2022-10-28T14:53:37.681Z,23.50
2022-10-28T14:57:40.488Z,23.40
2022-10-28T15:01:56.692Z,23.30
2022-10-28T15:06:20.072Z,23.20
2022-10-28T15:10:27.309Z,23.10
2022-10-28T15:14:36.630Z,22.90
2022-10-28T15:18:47.832Z,22.60
2022-10-28T15:22:52.981Z,22.40
2022-10-28T15:26:56.685Z,22.20
2022-10-28T15:30:59.528Z,22.00
2022-10-28T15:35:39.324Z,21.80
2022-10-28T15:39:43.491Z,21.70
2022-10-28T15:43:55.786Z,21.40
2022-10-28T15:48:00.020Z,21.30
2022-10-28T15:52:21.311Z,21.20
2022-10-28T15:56:26.424Z,21.10
2022-10-28T16:00:30.884Z,20.90
2022-10-28T16:04:44.391Z,20.70
2022-10-28T16:08:47.629Z,20.60
2022-10-28T16:12:51.995Z,20.40
2022-10-28T16:16:58.406Z,20.30
2022-10-28T16:21:01.961Z,20.10
2022-10-28T16:25:12.662Z,20.00
2022-10-28T16:29:16.780Z,19.90
2022-10-28T16:33:20.117Z,19.80
2022-10-28T16:37:25.747Z,19.80
2022-10-28T16:41:28.586Z,19.70
2022-10-28T16:45:32.710Z,19.70
2022-10-28T16:49:35.474Z,19.60
2022-10-28T16:53:38.740Z,19.50
2022-10-28T16:57:41.543Z,19.50
2022-10-28T17:01:45.888Z,19.50
2022-10-28T17:05:49.218Z,19.50
2022-10-28T17:09:52.884Z,19.50
2022-10-28T17:13:55.824Z,19.50
2022-10-28T17:17:59.999Z,19.50
2022-10-28T17:22:06.207Z,19.50
2022-10-28T17:26:12.029Z,19.50
2022-10-28T17:30:16.213Z,19.50
2022-10-28T17:34:20.658Z,19.50
2022-10-28T17:38:23.452Z,19.50
2022-10-28T17:42:26.427Z,19.50
2022-10-28T17:46:29.210Z,19.50
2022-10-28T17:50:33.362Z,19.50
2022-10-28T17:54:36.145Z,19.40
2022-10-28T17:58:38.962Z,19.30
2022-10-28T18:02:41.931Z,19.30
2022-10-28T18:06:46.175Z,19.20
2022-10-28T18:10:52.935Z,19.10
2022-10-28T18:14:55.787Z,19.10
2022-10-28T18:19:03.067Z,19.00
2022-10-28T18:23:07.254Z,18.90
2022-10-28T18:27:10.093Z,18.80
2022-10-28T18:31:15.026Z,18.70
2022-10-28T18:35:17.976Z,18.60
2022-10-28T18:39:22.129Z,18.50
2022-10-28T18:43:25.341Z,18.40
2022-10-28T18:47:28.134Z,18.20
2022-10-28T18:51:30.936Z,18.10
2022-10-28T18:55:35.629Z,18.00
2022-10-28T18:59:52.364Z,17.80
2022-10-28T19:04:04.080Z,17.70
2022-10-28T19:08:06.904Z,17.50
2022-10-28T19:12:11.297Z,17.40
2022-10-28T19:16:14.260Z,17.30
2022-10-28T19:20:17.406Z,17.30
2022-10-28T19:24:20.190Z,17.20
2022-10-28T19:28:24.356Z,17.10
2022-10-28T19:32:27.504Z,17.10
2022-10-28T19:36:31.031Z,17.00
2022-10-28T19:40:33.882Z,16.90
2022-10-28T19:44:38.010Z,16.90
2022-10-28T19:48:41.778Z,16.90
2022-10-28T19:52:44.794Z,16.80
2022-10-28T19:56:49.014Z,16.70
2022-10-28T20:29:23.779Z,16.60
2022-10-28T20:33:28.967Z,16.60
2022-10-28T20:37:31.775Z,16.60
2022-10-28T20:41:36.086Z,16.60
2022-10-28T20:45:38.859Z,16.50
2022-10-28T20:49:42.992Z,16.40
2022-10-28T20:53:45.775Z,16.30
2022-10-28T20:57:48.596Z,16.30
2022-10-28T21:01:51.679Z,16.30
2022-10-28T21:05:56.049Z,16.30
2022-10-28T21:09:58.911Z,16.20
2022-10-28T21:14:02.465Z,16.20
2022-10-28T21:18:06.702Z,16.30
2022-10-28T21:22:10.958Z,16.30
2022-10-28T21:26:14.518Z,16.30
2022-10-28T21:30:17.650Z,16.40
2022-10-28T21:34:20.491Z,16.40
2022-10-28T21:38:24.945Z,16.50
2022-10-28T21:42:27.952Z,16.50
2022-10-28T21:46:30.747Z,16.50
2022-10-28T21:50:33.567Z,16.50
2022-10-28T21:54:37.752Z,16.50
2022-10-28T21:58:41.070Z,16.50
2022-10-28T22:02:43.951Z,16.40
2022-10-28T22:10:59.725Z,16.40
2022-10-28T22:15:02.537Z,16.30
2022-10-28T22:19:08.237Z,16.20
2022-10-28T22:23:11.102Z,16.20
2022-10-28T22:27:15.255Z,16.20
2022-10-28T22:31:19.884Z,16.30
2022-10-28T22:35:22.661Z,16.40
2022-10-28T22:39:25.490Z,16.40
2022-10-28T22:43:29.680Z,16.40
2022-10-28T22:47:32.452Z,16.50
2022-10-28T22:51:35.250Z,16.50
2022-10-28T22:55:38.024Z,16.50
2022-10-28T22:59:42.141Z,16.50
2022-10-28T23:03:46.483Z,16.40
2022-10-28T23:07:49.386Z,16.40
2022-10-28T23:11:52.169Z,16.30
2022-10-28T23:15:56.324Z,16.30
2022-10-28T23:19:59.107Z,16.30
2022-10-28T23:24:02.278Z,16.30
2022-10-28T23:28:06.136Z,16.30
2022-10-28T23:32:10.270Z,16.30
2022-10-28T23:36:14.352Z,16.40
2022-10-28T23:40:17.552Z,16.40
2022-10-28T23:44:20.342Z,16.50
2022-10-28T23:48:25.159Z,16.60
2022-10-28T23:52:27.951Z,16.60
2022-10-28T23:56:30.950Z,16.70
